createdAt,value
2018-07-01T00:00:16.896Z,24.92
2018-07-01T00:01:16.842Z,25.01
2018-07-01T00:02:16.822Z,25.01
2018-07-01T00:03:16.801Z,24.97
2018-07-01T00:04:16.790Z,24.95
2018-07-01T00:05:16.776Z,25.05
2018-07-01T00:06:16.839Z,24.97
2018-07-01T00:07:16.758Z,25.01
2018-07-01T00:08:16.758Z,24.97
2018-07-01T00:09:16.736Z,24.94
2018-07-01T00:10:16.726Z,25.01
2018-07-01T00:11:16.733Z,24.95
2018-07-01T00:12:16.703Z,24.87
2018-07-01T00:13:16.693Z,25.02
2018-07-01T00:14:16.693Z,25.00
2018-07-01T00:15:16.669Z,24.97
2018-07-01T00:16:16.680Z,25.00
2018-07-01T00:17:16.650Z,24.98
2018-07-01T00:18:16.638Z,25.00
2018-07-01T00:19:16.625Z,24.88
2018-07-01T00:20:16.633Z,24.92
2018-07-01T00:21:16.625Z,24.97
2018-07-01T00:22:16.593Z,24.92
2018-07-01T00:23:16.583Z,24.92
2018-07-01T00:24:16.570Z,25.02
2018-07-01T00:25:16.560Z,24.97
2018-07-01T00:26:16.588Z,24.95
2018-07-01T00:27:16.539Z,24.97
2018-07-01T00:28:16.528Z,24.92
2018-07-01T00:29:16.517Z,24.92
2018-07-01T00:30:16.505Z,24.97
2018-07-01T00:31:16.515Z,24.90
2018-07-01T00:32:16.501Z,24.85
2018-07-01T00:33:16.473Z,24.97
2018-07-01T00:34:16.463Z,24.90
2018-07-01T00:35:16.451Z,24.92
2018-07-01T00:36:16.465Z,24.98
2018-07-01T00:37:16.431Z,24.94
2018-07-01T00:38:16.430Z,24.88
2018-07-01T00:39:16.408Z,24.88
2018-07-01T00:40:16.398Z,24.83
2018-07-01T00:41:16.387Z,24.88
2018-07-01T00:42:16.395Z,24.90
2018-07-01T00:43:16.365Z,24.83
2018-07-01T00:44:16.365Z,24.88
2018-07-01T00:45:16.343Z,24.88
2018-07-01T00:46:16.334Z,24.94
2018-07-01T00:47:16.342Z,24.91
2018-07-01T00:48:16.309Z,24.92
2018-07-01T00:49:16.299Z,24.87
2018-07-01T00:50:16.302Z,24.83
2018-07-01T00:51:16.279Z,24.92
2018-07-01T00:52:16.286Z,24.92
2018-07-01T00:53:16.256Z,24.90
2018-07-01T00:54:16.244Z,24.88
2018-07-01T00:55:16.234Z,24.82
2018-07-01T00:56:16.244Z,24.87
2018-07-01T00:57:16.232Z,24.82
2018-07-01T00:58:16.200Z,24.91
2018-07-01T00:59:16.189Z,24.83
2018-07-01T01:00:16.182Z,24.85
2018-07-01T01:01:16.170Z,24.82
2018-07-01T01:02:16.196Z,24.87
2018-07-01T01:03:16.147Z,24.83
2018-07-01T01:04:16.134Z,24.88
2018-07-01T01:05:16.124Z,24.83
2018-07-01T01:06:16.113Z,24.90
2018-07-01T01:07:16.122Z,24.87
2018-07-01T01:08:16.109Z,24.90
2018-07-01T01:09:16.081Z,24.82
2018-07-01T01:10:16.070Z,24.79
2018-07-01T01:11:16.062Z,24.83
2018-07-01T01:12:16.068Z,24.85
2018-07-01T01:13:16.037Z,24.79
2018-07-01T01:14:16.037Z,24.79
2018-07-01T01:15:16.017Z,24.85
2018-07-01T01:16:16.004Z,24.82
2018-07-01T01:17:16.014Z,24.82
2018-07-01T01:18:15.983Z,24.83
2018-07-01T01:19:15.971Z,24.83
2018-07-01T01:20:15.975Z,24.87
2018-07-01T01:21:15.948Z,24.82
2018-07-01T01:22:15.958Z,24.83
2018-07-01T01:23:15.930Z,24.80
2018-07-01T01:24:15.919Z,24.79
2018-07-01T01:25:15.908Z,24.80
2018-07-01T01:26:15.914Z,24.83
2018-07-01T01:27:15.904Z,24.82
2018-07-01T01:28:15.875Z,24.80
2018-07-01T01:29:15.861Z,24.82
2018-07-01T01:30:15.850Z,24.80
2018-07-01T01:31:15.840Z,24.85
2018-07-01T01:32:15.868Z,24.77
2018-07-01T01:33:15.823Z,24.88
2018-07-01T01:34:15.809Z,24.83
2018-07-01T01:35:15.796Z,24.87
2018-07-01T01:36:15.786Z,24.85
2018-07-01T01:37:15.794Z,24.77
2018-07-01T01:38:15.781Z,24.79
2018-07-01T01:39:15.756Z,24.87
2018-07-01T01:40:15.742Z,24.83
2018-07-01T01:41:15.731Z,24.77
2018-07-01T01:42:15.740Z,24.82
2018-07-01T01:43:15.710Z,24.79
2018-07-01T01:44:15.714Z,24.79
2018-07-01T01:45:15.687Z,24.82
2018-07-01T01:46:15.677Z,24.83
2018-07-01T01:47:15.687Z,24.82
2018-07-01T01:48:15.657Z,24.79
2018-07-01T01:49:15.645Z,24.69
2018-07-01T01:50:15.651Z,24.79
2018-07-01T01:51:15.623Z,24.71
2018-07-01T01:52:15.630Z,24.82
2018-07-01T01:53:15.602Z,24.79
2018-07-01T01:54:15.591Z,24.68
2018-07-01T01:55:15.579Z,24.80
2018-07-01T01:56:15.577Z,24.79
2018-07-01T01:57:15.579Z,24.71
2018-07-01T01:58:15.566Z,24.76
2018-07-01T01:59:15.535Z,24.82
2018-07-01T02:00:15.524Z,24.83
2018-07-01T02:01:15.516Z,24.69
2018-07-01T02:02:15.523Z,24.83
2018-07-01T02:03:15.516Z,24.68
2018-07-01T02:04:15.480Z,24.68
2018-07-01T02:05:15.469Z,24.77
2018-07-01T02:06:15.458Z,24.71
2018-07-01T02:07:15.447Z,24.69
2018-07-01T02:08:15.476Z,24.76
2018-07-01T02:09:15.428Z,24.71
2018-07-01T02:10:15.415Z,24.71
2018-07-01T02:11:15.412Z,24.69
2018-07-01T02:12:15.394Z,24.82
2018-07-01T02:13:15.402Z,24.68
2018-07-01T02:14:15.396Z,24.71
2018-07-01T02:15:15.362Z,24.69
2018-07-01T02:16:15.350Z,24.69
2018-07-01T02:17:15.339Z,24.69
2018-07-01T02:18:15.349Z,24.68
2018-07-01T02:19:15.317Z,24.68
2018-07-01T02:20:15.329Z,24.73
2018-07-01T02:21:15.295Z,24.69
2018-07-01T02:22:15.283Z,24.69
2018-07-01T02:23:15.293Z,24.69
2018-07-01T02:24:15.262Z,24.69
2018-07-01T02:25:15.252Z,24.77
2018-07-01T02:26:15.253Z,24.69
2018-07-01T02:27:15.229Z,24.79
2018-07-01T02:28:15.240Z,24.69
2018-07-01T02:29:15.209Z,24.73
2018-07-01T02:30:15.199Z,24.76
2018-07-01T02:31:15.187Z,24.67
2018-07-01T02:32:15.189Z,24.68
2018-07-01T02:33:15.186Z,24.68
2018-07-01T02:34:15.154Z,24.69
2018-07-01T02:35:15.196Z,24.69
2018-07-01T02:36:15.131Z,24.76
2018-07-01T02:37:15.121Z,24.75
2018-07-01T02:38:15.142Z,24.75
2018-07-01T02:39:15.099Z,24.75
2018-07-01T02:40:15.088Z,24.71
2018-07-01T02:41:15.077Z,24.69
2018-07-01T02:42:15.066Z,24.67
2018-07-01T02:43:15.076Z,24.67
2018-07-01T02:44:15.055Z,24.69
2018-07-01T02:45:15.033Z,24.71
2018-07-01T02:46:15.023Z,24.64
2018-07-01T02:47:15.015Z,24.75
2018-07-01T02:48:15.026Z,24.69
2018-07-01T02:49:14.991Z,24.71
2018-07-01T02:50:14.992Z,24.67
2018-07-01T02:51:14.974Z,24.71
2018-07-01T02:52:14.957Z,24.68
2018-07-01T02:53:14.968Z,24.73
2018-07-01T02:54:14.936Z,24.69
2018-07-01T02:55:14.928Z,24.71
2018-07-01T02:56:14.935Z,24.68
2018-07-01T02:57:14.931Z,24.63
2018-07-01T02:58:14.916Z,24.68
2018-07-01T02:59:14.881Z,24.71
2018-07-01T03:00:14.871Z,24.73
2018-07-01T03:01:14.861Z,24.68
2018-07-01T03:02:14.865Z,24.64
2018-07-01T03:03:14.864Z,24.68
2018-07-01T03:04:14.827Z,24.64
2018-07-01T03:05:14.816Z,24.73
2018-07-01T03:06:14.805Z,24.67
2018-07-01T03:07:14.796Z,24.75
2018-07-01T03:08:14.813Z,24.63
2018-07-01T03:09:14.776Z,24.75
2018-07-01T03:10:14.761Z,24.64
2018-07-01T03:11:14.750Z,24.69
2018-07-01T03:12:14.739Z,24.67
2018-07-01T03:13:14.748Z,24.64
2018-07-01T03:14:14.735Z,24.57
2018-07-01T03:15:14.707Z,24.60
2018-07-01T03:16:14.695Z,24.60
2018-07-01T03:17:14.684Z,24.57
2018-07-01T03:18:14.696Z,24.67
2018-07-01T03:19:14.664Z,24.71
2018-07-01T03:20:14.665Z,24.59
2018-07-01T03:21:14.640Z,24.63
2018-07-01T03:22:14.630Z,24.56
2018-07-01T03:23:14.640Z,24.56
2018-07-01T03:24:14.609Z,24.53
2018-07-01T03:25:14.597Z,24.60
2018-07-01T03:26:14.596Z,24.60
2018-07-01T03:27:14.575Z,24.63
2018-07-01T03:28:14.584Z,24.71
2018-07-01T03:29:14.554Z,24.59
2018-07-01T03:30:14.544Z,24.61
2018-07-01T03:31:14.532Z,24.54
2018-07-01T03:32:14.533Z,24.59
2018-07-01T03:33:14.530Z,24.59
2018-07-01T03:34:14.499Z,24.57
2018-07-01T03:35:14.489Z,24.54
2018-07-01T03:36:14.482Z,24.67
2018-07-01T03:37:14.465Z,24.59
2018-07-01T03:38:14.504Z,24.53
2018-07-01T03:39:14.443Z,24.56
2018-07-01T03:40:14.433Z,24.56
2018-07-01T03:41:14.422Z,24.59
2018-07-01T03:42:14.414Z,24.53
2018-07-01T03:43:14.400Z,24.63
2018-07-01T03:44:14.428Z,24.59
2018-07-01T03:45:14.379Z,24.52
2018-07-01T03:46:14.368Z,24.53
2018-07-01T03:47:14.358Z,24.56
2018-07-01T03:48:14.349Z,24.56
2018-07-01T03:49:14.359Z,24.59
2018-07-01T03:50:14.361Z,24.59
2018-07-01T03:51:14.313Z,24.53
2018-07-01T03:52:14.303Z,24.59
2018-07-01T03:53:14.290Z,24.52
2018-07-01T03:54:14.300Z,24.61
2018-07-01T03:55:14.271Z,24.57
2018-07-01T03:56:14.278Z,24.60
2018-07-01T03:57:14.248Z,24.52
2018-07-01T03:58:14.240Z,24.56
2018-07-01T03:59:14.246Z,24.59
2018-07-01T04:00:14.219Z,24.57
2018-07-01T04:01:14.205Z,24.60
2018-07-01T04:02:14.215Z,24.59
2018-07-01T04:03:14.182Z,24.57
2018-07-01T04:04:14.193Z,24.59
2018-07-01T04:05:14.160Z,24.63
2018-07-01T04:06:14.149Z,24.61
2018-07-01T04:07:14.138Z,24.56
2018-07-01T04:08:14.139Z,24.61
2018-07-01T04:09:14.137Z,24.57
2018-07-01T04:10:14.107Z,24.57
2018-07-01T04:11:14.098Z,24.57
2018-07-01T04:12:14.084Z,24.57
2018-07-01T04:13:14.073Z,24.54
2018-07-01T04:14:14.101Z,24.61
2018-07-01T04:15:14.052Z,24.60
2018-07-01T04:16:14.041Z,24.60
2018-07-01T04:17:14.032Z,24.60
2018-07-01T04:18:14.020Z,24.54
2018-07-01T04:19:14.028Z,24.54
2018-07-01T04:20:14.013Z,24.59
2018-07-01T04:21:13.986Z,24.54
2018-07-01T04:22:13.978Z,24.59
2018-07-01T04:23:13.964Z,24.52
2018-07-01T04:24:13.974Z,24.59
2018-07-01T04:25:13.950Z,24.59
2018-07-01T04:26:13.947Z,24.57
2018-07-01T04:27:13.921Z,24.54
2018-07-01T04:28:13.909Z,24.60
2018-07-01T04:29:13.918Z,24.56
2018-07-01T04:30:13.888Z,24.59
2018-07-01T04:31:13.928Z,24.53
2018-07-01T04:32:13.878Z,24.57
2018-07-01T04:33:13.855Z,24.59
2018-07-01T04:34:13.864Z,24.53
2018-07-01T04:35:13.834Z,24.59
2018-07-01T04:36:13.829Z,24.61
2018-07-01T04:37:13.812Z,24.60
2018-07-01T04:38:13.812Z,24.52
2018-07-01T04:39:13.808Z,24.53
2018-07-01T04:40:13.779Z,24.54
2018-07-01T04:41:13.768Z,24.54
2018-07-01T04:42:13.756Z,24.52
2018-07-01T04:43:13.747Z,24.50
2018-07-01T04:44:13.768Z,24.52
2018-07-01T04:45:13.729Z,24.53
2018-07-01T04:46:13.713Z,24.50
2018-07-01T04:47:13.704Z,24.59
2018-07-01T04:48:13.691Z,24.54
2018-07-01T04:49:13.705Z,24.59
2018-07-01T04:50:13.684Z,24.53
2018-07-01T04:51:13.658Z,24.54
2018-07-01T04:52:13.649Z,24.54
2018-07-01T04:53:13.636Z,24.49
2018-07-01T04:54:13.646Z,24.53
2018-07-01T04:55:13.704Z,24.50
2018-07-01T04:56:13.626Z,24.53
2018-07-01T04:57:13.595Z,24.53
2018-07-01T04:58:13.585Z,24.57
2018-07-01T04:59:13.592Z,24.61
2018-07-01T05:00:13.563Z,24.54
2018-07-01T05:01:13.553Z,24.47
2018-07-01T05:02:13.566Z,24.53
2018-07-01T05:03:13.527Z,24.45
2018-07-01T05:04:13.536Z,24.50
2018-07-01T05:05:13.508Z,24.54
2018-07-01T05:06:13.496Z,24.49
2018-07-01T05:07:13.485Z,24.53
2018-07-01T05:08:13.489Z,24.52
2018-07-01T05:09:13.487Z,24.54
2018-07-01T05:10:13.452Z,24.53
2018-07-01T05:11:13.441Z,24.53
2018-07-01T05:12:13.431Z,24.49
2018-07-01T05:13:13.418Z,24.52
2018-07-01T05:14:13.448Z,24.50
2018-07-01T05:15:13.397Z,24.53
2018-07-01T05:16:13.388Z,24.52
2018-07-01T05:17:13.402Z,24.50
2018-07-01T05:18:13.365Z,24.53
2018-07-01T05:19:13.377Z,24.57
2018-07-01T05:20:13.359Z,24.50
2018-07-01T05:21:13.332Z,24.53
2018-07-01T05:22:13.322Z,24.50
2018-07-01T05:23:13.310Z,24.50
2018-07-01T05:24:13.324Z,24.54
2018-07-01T05:25:13.288Z,24.49
2018-07-01T05:26:13.290Z,24.54
2018-07-01T05:27:13.266Z,24.54
2018-07-01T05:28:13.255Z,24.50
2018-07-01T05:29:13.244Z,24.56
2018-07-01T05:30:13.256Z,24.50
2018-07-01T05:31:13.224Z,24.56
2018-07-01T05:32:13.228Z,24.47
2018-07-01T05:33:13.201Z,24.45
2018-07-01T05:34:13.191Z,24.54
2018-07-01T05:35:13.200Z,24.53
2018-07-01T05:36:13.170Z,24.52
2018-07-01T05:37:13.157Z,24.56
2018-07-01T05:38:13.158Z,24.53
2018-07-01T05:39:13.135Z,24.54
2018-07-01T05:40:13.145Z,24.59
2018-07-01T05:41:13.113Z,24.49
2018-07-01T05:42:13.104Z,24.44
2018-07-01T05:43:13.092Z,24.54
2018-07-01T05:44:13.099Z,24.59
2018-07-01T05:45:13.090Z,24.49
2018-07-01T05:46:13.061Z,24.50
2018-07-01T05:47:13.048Z,24.54
2018-07-01T05:48:13.036Z,24.45
2018-07-01T05:49:13.026Z,24.50
2018-07-01T05:50:13.050Z,24.45
2018-07-01T05:51:13.007Z,24.44
2018-07-01T05:52:12.995Z,24.45
2018-07-01T05:53:12.984Z,24.45
2018-07-01T05:54:12.971Z,24.47
2018-07-01T05:55:12.982Z,24.45
2018-07-01T05:56:12.960Z,24.56
2018-07-01T05:57:13.016Z,24.54
2018-07-01T05:58:12.929Z,24.56
2018-07-01T05:59:12.918Z,24.50
2018-07-01T06:00:12.928Z,24.50
2018-07-01T06:01:12.895Z,24.47
2018-07-01T06:02:12.896Z,24.53
2018-07-01T06:03:12.878Z,24.49
2018-07-01T06:04:12.865Z,24.45
2018-07-01T06:05:12.872Z,24.44
2018-07-01T06:06:12.843Z,24.47
2018-07-01T06:07:12.833Z,24.47
2018-07-01T06:08:12.831Z,24.47
2018-07-01T06:09:12.809Z,24.49
2018-07-01T06:10:12.819Z,24.52
2018-07-01T06:11:12.789Z,24.53
2018-07-01T06:12:12.778Z,24.41
2018-07-01T06:13:12.765Z,24.49
2018-07-01T06:14:12.769Z,24.45
2018-07-01T06:15:12.763Z,24.42
2018-07-01T06:16:12.735Z,24.49
2018-07-01T06:17:12.722Z,24.45
2018-07-01T06:18:12.710Z,24.45
2018-07-01T06:19:12.700Z,24.45
2018-07-01T06:20:12.721Z,24.52
2018-07-01T06:21:12.678Z,24.56
2018-07-01T06:22:12.672Z,24.50
2018-07-01T06:23:12.655Z,24.47
2018-07-01T06:24:12.645Z,24.50
2018-07-01T06:25:12.655Z,24.49
2018-07-01T06:26:12.638Z,24.47
2018-07-01T06:27:12.615Z,24.45
2018-07-01T06:28:12.600Z,24.45
2018-07-01T06:29:12.590Z,24.45
2018-07-01T06:30:12.599Z,24.45
2018-07-01T06:31:12.569Z,24.47
2018-07-01T06:32:12.568Z,24.50
2018-07-01T06:33:12.555Z,24.42
2018-07-01T06:34:12.536Z,24.47
2018-07-01T06:35:12.546Z,24.44
2018-07-01T06:36:12.514Z,24.47
2018-07-01T06:37:12.503Z,24.41
2018-07-01T06:38:12.513Z,24.49
2018-07-01T06:39:12.482Z,24.52
2018-07-01T06:40:12.491Z,24.44
2018-07-01T06:41:12.460Z,24.47
2018-07-01T06:42:12.448Z,24.47
2018-07-01T06:43:12.436Z,24.47
2018-07-01T06:44:12.438Z,24.49
2018-07-01T06:45:12.437Z,24.42
2018-07-01T06:46:12.404Z,24.53
2018-07-01T06:47:12.395Z,24.49
2018-07-01T06:48:12.385Z,24.52
2018-07-01T06:49:12.372Z,24.54
2018-07-01T06:50:12.399Z,24.50
2018-07-01T06:51:12.350Z,24.50
2018-07-01T06:52:12.340Z,24.52
2018-07-01T06:53:12.328Z,24.47
2018-07-01T06:54:12.318Z,24.50
2018-07-01T06:55:12.327Z,24.47
2018-07-01T06:56:12.313Z,24.45
2018-07-01T06:57:12.284Z,24.44
2018-07-01T06:58:12.273Z,24.53
2018-07-01T06:59:12.262Z,24.49
2018-07-01T07:00:12.278Z,24.41
2018-07-01T07:01:12.241Z,24.41
2018-07-01T07:02:12.242Z,24.39
2018-07-01T07:03:12.219Z,24.45
2018-07-01T07:04:12.207Z,24.49
2018-07-01T07:05:12.221Z,24.47
2018-07-01T07:06:12.187Z,24.52
2018-07-01T07:07:12.177Z,24.47
2018-07-01T07:08:12.175Z,24.52
2018-07-01T07:09:12.174Z,24.47
2018-07-01T07:10:12.142Z,24.47
2018-07-01T07:11:12.152Z,24.44
2018-07-01T07:12:12.124Z,24.47
2018-07-01T07:13:12.112Z,24.49
2018-07-01T07:14:12.108Z,24.52
2018-07-01T07:15:12.092Z,24.41
2018-07-01T07:16:12.162Z,24.45
2018-07-01T07:17:12.065Z,24.41
2018-07-01T07:18:12.056Z,24.47
2018-07-01T07:19:12.044Z,24.49
2018-07-01T07:20:12.055Z,24.53
2018-07-01T07:21:12.042Z,24.49
2018-07-01T07:22:12.012Z,24.44
2018-07-01T07:23:12.004Z,24.45
2018-07-01T07:24:11.991Z,24.39
2018-07-01T07:25:11.978Z,24.39
2018-07-01T07:26:12.010Z,24.44
2018-07-01T07:27:11.956Z,24.49
2018-07-01T07:28:11.946Z,24.50
2018-07-01T07:29:11.935Z,24.44
2018-07-01T07:30:11.924Z,24.42
2018-07-01T07:31:11.932Z,24.42
2018-07-01T07:32:11.914Z,24.44
2018-07-01T07:33:11.894Z,24.47
2018-07-01T07:34:11.880Z,24.41
2018-07-01T07:35:11.888Z,24.53
2018-07-01T07:36:11.880Z,24.52
2018-07-01T07:37:11.849Z,24.54
2018-07-01T07:38:11.849Z,24.47
2018-07-01T07:39:11.826Z,24.45
2018-07-01T07:40:11.816Z,24.49
2018-07-01T07:41:11.825Z,24.42
2018-07-01T07:42:11.794Z,24.42
2018-07-01T07:43:11.798Z,24.59
2018-07-01T07:44:11.772Z,24.41
2018-07-01T07:45:11.779Z,24.44
2018-07-01T07:46:11.772Z,24.42
2018-07-01T07:47:11.738Z,24.42
2018-07-01T07:48:11.728Z,24.44
2018-07-01T07:49:11.727Z,24.44
2018-07-01T07:50:11.705Z,24.41
2018-07-01T07:51:11.715Z,24.53
2018-07-01T07:52:11.784Z,24.45
2018-07-01T07:53:11.672Z,24.39
2018-07-01T07:54:11.664Z,24.45
2018-07-01T07:55:11.669Z,24.47
2018-07-01T07:56:11.661Z,24.47
2018-07-01T07:57:11.629Z,24.45
2018-07-01T07:58:11.618Z,24.42
2018-07-01T07:59:11.606Z,24.53
2018-07-01T08:00:11.595Z,24.42
2018-07-01T08:01:11.618Z,24.47
2018-07-01T08:02:11.575Z,24.45
2018-07-01T08:03:11.564Z,24.39
2018-07-01T08:04:11.554Z,24.44
2018-07-01T08:05:11.541Z,24.45
2018-07-01T08:06:11.551Z,24.39
2018-07-01T08:07:11.531Z,24.47
2018-07-01T08:08:11.511Z,24.39
2018-07-01T08:09:11.497Z,24.45
2018-07-01T08:10:11.486Z,24.42
2018-07-01T08:11:11.496Z,24.45
2018-07-01T08:12:11.465Z,24.44
2018-07-01T08:13:11.485Z,24.42
2018-07-01T08:14:11.443Z,24.45
2018-07-01T08:15:11.433Z,24.39
2018-07-01T08:16:11.441Z,24.44
2018-07-01T08:17:11.411Z,24.44
2018-07-01T08:18:11.399Z,24.42
2018-07-01T08:19:11.408Z,24.50
2018-07-01T08:20:11.380Z,24.50
2018-07-01T08:21:11.387Z,24.41
2018-07-01T08:22:11.356Z,24.49
2018-07-01T08:23:11.346Z,24.39
2018-07-01T08:24:11.335Z,24.47
2018-07-01T08:25:11.335Z,24.41
2018-07-01T08:26:11.333Z,24.44
2018-07-01T08:27:11.304Z,24.42
2018-07-01T08:28:11.290Z,24.42
2018-07-01T08:29:11.281Z,24.39
2018-07-01T08:30:11.269Z,24.44
2018-07-01T08:31:11.293Z,24.47
2018-07-01T08:32:11.248Z,24.50
2018-07-01T08:33:11.240Z,24.41
2018-07-01T08:34:11.223Z,24.50
2018-07-01T08:35:11.216Z,24.44
2018-07-01T08:36:11.224Z,24.44
2018-07-01T08:37:11.205Z,24.41
2018-07-01T08:38:11.185Z,24.54
2018-07-01T08:39:11.171Z,24.41
2018-07-01T08:40:11.196Z,24.41
2018-07-01T08:41:11.170Z,24.52
2018-07-01T08:42:11.137Z,24.45
2018-07-01T08:43:11.135Z,24.53
2018-07-01T08:44:11.117Z,24.42
2018-07-01T08:45:11.105Z,24.49
2018-07-01T08:46:11.143Z,24.49
2018-07-01T08:47:11.083Z,24.47
2018-07-01T08:48:11.071Z,24.45
2018-07-01T08:49:11.090Z,24.44
2018-07-01T08:50:11.050Z,24.42
2018-07-01T08:51:11.040Z,24.45
2018-07-01T08:52:11.050Z,24.41
2018-07-01T08:53:11.016Z,24.42
2018-07-01T08:54:11.007Z,24.45
2018-07-01T08:55:11.007Z,24.42
2018-07-01T08:56:10.986Z,24.44
2018-07-01T08:57:10.993Z,24.42
2018-07-01T08:58:10.962Z,24.45
2018-07-01T08:59:10.951Z,24.44
2018-07-01T09:00:10.943Z,24.47
2018-07-01T09:01:10.947Z,24.45
2018-07-01T09:02:10.942Z,24.42
2018-07-01T09:03:10.910Z,24.42
2018-07-01T09:04:10.896Z,24.54
2018-07-01T09:05:10.887Z,24.47
2018-07-01T09:06:10.875Z,24.44
2018-07-01T09:07:10.899Z,24.47
2018-07-01T09:08:10.853Z,24.39
2018-07-01T09:09:10.843Z,24.44
2018-07-01T09:10:10.834Z,24.52
2018-07-01T09:11:10.821Z,24.45
2018-07-01T09:12:10.834Z,24.45
2018-07-01T09:13:10.809Z,24.49
2018-07-01T09:14:10.787Z,24.52
2018-07-01T09:15:10.776Z,24.44
2018-07-01T09:16:10.766Z,24.44
2018-07-01T09:17:10.778Z,24.47
2018-07-01T09:18:10.743Z,24.45
2018-07-01T09:19:10.744Z,24.45
2018-07-01T09:20:10.722Z,24.47
2018-07-01T09:21:10.710Z,24.45
2018-07-01T09:22:10.722Z,24.49
2018-07-01T09:23:10.689Z,24.49
2018-07-01T09:24:10.681Z,24.44
2018-07-01T09:25:10.683Z,24.45
2018-07-01T09:26:10.655Z,24.52
2018-07-01T09:27:10.664Z,24.42
2018-07-01T09:28:10.636Z,24.50
2018-07-01T09:29:10.626Z,24.52
2018-07-01T09:30:10.613Z,24.47
2018-07-01T09:31:10.615Z,24.52
2018-07-01T09:32:10.611Z,24.49
2018-07-01T09:33:10.580Z,24.45
2018-07-01T09:34:10.568Z,24.49
2018-07-01T09:35:10.558Z,24.52
2018-07-01T09:36:10.547Z,24.49
2018-07-01T09:37:10.570Z,24.49
2018-07-01T09:38:10.526Z,24.42
2018-07-01T09:39:10.514Z,24.57
2018-07-01T09:40:10.503Z,24.49
2018-07-01T09:41:10.492Z,24.54
2018-07-01T09:42:10.501Z,24.52
2018-07-01T09:43:10.486Z,24.45
2018-07-01T09:44:10.461Z,24.49
2018-07-01T09:45:10.450Z,24.50
2018-07-01T09:46:10.440Z,24.45
2018-07-01T09:47:10.451Z,24.47
2018-07-01T09:48:10.417Z,24.57
2018-07-01T09:49:10.421Z,24.44
2018-07-01T09:50:10.395Z,24.49
2018-07-01T09:51:10.385Z,24.53
2018-07-01T09:52:10.393Z,24.45
2018-07-01T09:53:10.363Z,24.54
2018-07-01T09:54:10.352Z,24.50
2018-07-01T09:55:10.356Z,24.44
2018-07-01T09:56:10.330Z,24.54
2018-07-01T09:57:10.338Z,24.45
2018-07-01T09:58:10.310Z,24.54
2018-07-01T09:59:10.299Z,24.54
2018-07-01T10:00:10.285Z,24.53
2018-07-01T10:01:10.290Z,24.50
2018-07-01T10:02:10.287Z,24.53
2018-07-01T10:03:10.253Z,24.54
2018-07-01T10:04:10.241Z,24.49
2018-07-01T10:05:10.232Z,24.56
2018-07-01T10:06:10.220Z,24.50
2018-07-01T10:07:10.243Z,24.50
2018-07-01T10:08:10.198Z,24.53
2018-07-01T10:09:10.187Z,24.57
2018-07-01T10:10:10.176Z,24.57
2018-07-01T10:11:10.165Z,24.52
2018-07-01T10:12:10.174Z,24.56
2018-07-01T10:13:10.153Z,24.52
2018-07-01T10:14:10.132Z,24.54
2018-07-01T10:15:10.123Z,24.53
2018-07-01T10:16:10.111Z,24.60
2018-07-01T10:17:10.119Z,24.60
2018-07-01T10:18:10.099Z,24.52
2018-07-01T10:19:10.090Z,24.53
2018-07-01T10:20:10.068Z,24.53
2018-07-01T10:21:10.057Z,24.56
2018-07-01T10:22:10.067Z,24.56
2018-07-01T10:23:10.035Z,24.53
2018-07-01T10:24:10.024Z,24.59
2018-07-01T10:25:10.029Z,24.53
2018-07-01T10:26:10.010Z,24.57
2018-07-01T10:27:10.017Z,24.59
2018-07-01T10:28:09.980Z,24.59
2018-07-01T10:29:09.972Z,24.57
2018-07-01T10:30:09.958Z,24.59
2018-07-01T10:31:09.959Z,24.56
2018-07-01T10:32:09.939Z,24.59
2018-07-01T10:33:09.946Z,24.57
2018-07-01T10:34:09.915Z,24.60
2018-07-01T10:35:09.902Z,24.57
2018-07-01T10:36:09.893Z,24.56
2018-07-01T10:37:09.902Z,24.54
2018-07-01T10:38:09.892Z,24.56
2018-07-01T10:39:09.861Z,24.56
2018-07-01T10:40:09.909Z,24.54
2018-07-01T10:41:09.840Z,24.57
2018-07-01T10:42:09.840Z,24.60
2018-07-01T10:43:09.851Z,24.63
2018-07-01T10:44:09.808Z,24.57
2018-07-01T10:45:09.796Z,24.59
2018-07-01T10:46:09.784Z,24.60
2018-07-01T10:47:09.773Z,24.59
2018-07-01T10:48:09.782Z,24.63
2018-07-01T10:49:09.769Z,24.54
2018-07-01T10:50:09.792Z,24.60
2018-07-01T10:51:09.729Z,24.57
2018-07-01T10:52:09.721Z,24.56
2018-07-01T10:53:09.727Z,24.54
2018-07-01T10:54:09.696Z,24.54
2018-07-01T10:55:09.708Z,24.56
2018-07-01T10:56:09.674Z,24.60
2018-07-01T10:57:09.663Z,24.56
2018-07-01T10:58:09.677Z,24.57
2018-07-01T10:59:09.643Z,24.53
2018-07-01T11:00:09.635Z,24.60
2018-07-01T11:01:09.630Z,24.61
2018-07-01T11:02:09.609Z,24.60
2018-07-01T11:03:09.619Z,24.53
2018-07-01T11:04:09.590Z,24.60
2018-07-01T11:05:09.577Z,24.59
2018-07-01T11:06:09.625Z,24.57
2018-07-01T11:07:09.566Z,24.57
2018-07-01T11:08:09.565Z,24.56
2018-07-01T11:09:09.532Z,24.56
2018-07-01T11:10:09.523Z,24.50
2018-07-01T11:11:09.510Z,24.59
2018-07-01T11:12:09.500Z,24.56
2018-07-01T11:13:09.527Z,24.63
2018-07-01T11:14:09.481Z,24.60
2018-07-01T11:15:09.467Z,24.57
2018-07-01T11:16:09.459Z,24.63
2018-07-01T11:17:09.448Z,24.56
2018-07-01T11:18:09.454Z,24.53
2018-07-01T11:19:09.437Z,24.59
2018-07-01T11:20:09.412Z,24.52
2018-07-01T11:21:09.402Z,24.61
2018-07-01T11:22:09.391Z,24.57
2018-07-01T11:23:09.400Z,24.56
2018-07-01T11:24:09.368Z,24.59
2018-07-01T11:25:09.372Z,24.57
2018-07-01T11:26:09.352Z,24.59
2018-07-01T11:27:09.458Z,24.64
2018-07-01T11:28:09.348Z,24.52
2018-07-01T11:29:09.318Z,24.60
2018-07-01T11:30:09.304Z,24.56
2018-07-01T11:31:09.307Z,24.57
2018-07-01T11:32:09.284Z,24.53
2018-07-01T11:33:09.291Z,24.71
2018-07-01T11:34:09.264Z,24.53
2018-07-01T11:35:09.258Z,24.69
2018-07-01T11:36:09.239Z,24.56
2018-07-01T11:37:09.236Z,24.54
2018-07-01T11:38:09.254Z,24.59
2018-07-01T11:39:09.207Z,24.53
2018-07-01T11:40:09.196Z,24.60
2018-07-01T11:41:09.183Z,24.63
2018-07-01T11:42:09.176Z,24.57
2018-07-01T11:43:09.194Z,24.61
2018-07-01T11:44:09.151Z,24.59
2018-07-01T11:45:09.144Z,24.63
2018-07-01T11:46:09.129Z,24.64
2018-07-01T11:47:09.118Z,24.56
2018-07-01T11:48:09.131Z,24.57
2018-07-01T11:49:09.111Z,24.64
2018-07-01T11:50:09.086Z,24.64
2018-07-01T11:51:09.078Z,24.61
2018-07-01T11:52:09.091Z,24.52
2018-07-01T11:53:09.074Z,24.53
2018-07-01T11:54:09.041Z,24.64
2018-07-01T11:55:09.040Z,24.56
2018-07-01T11:56:09.019Z,24.61
2018-07-01T11:57:09.017Z,24.57
2018-07-01T11:58:09.068Z,24.56
2018-07-01T11:59:08.989Z,24.53
2018-07-01T12:00:08.978Z,24.57
2018-07-01T12:01:08.978Z,24.54
2018-07-01T12:02:08.955Z,24.64
2018-07-01T12:03:08.965Z,24.64
2018-07-01T12:04:08.934Z,24.56
2018-07-01T12:05:16.663Z,24.64
2018-07-01T12:06:08.919Z,24.59
2018-07-01T12:07:08.900Z,24.53
2018-07-01T12:08:08.910Z,24.57
2018-07-01T12:09:08.879Z,24.57
2018-07-01T12:10:08.868Z,24.67
2018-07-01T12:11:08.857Z,24.63
2018-07-01T12:12:08.874Z,24.64
2018-07-01T12:13:08.858Z,24.59
2018-07-01T12:14:08.827Z,24.57
2018-07-01T12:15:08.815Z,24.56
2018-07-01T12:16:08.801Z,24.60
2018-07-01T12:17:08.792Z,24.60
2018-07-01T12:18:08.792Z,24.63
2018-07-01T12:19:08.789Z,24.60
2018-07-01T12:20:08.759Z,24.60
2018-07-01T12:21:08.747Z,24.59
2018-07-01T12:22:08.737Z,24.57
2018-07-01T12:23:08.726Z,24.59
2018-07-01T12:24:08.757Z,24.56
2018-07-01T12:25:08.704Z,24.61
2018-07-01T12:26:08.693Z,24.63
2018-07-01T12:27:08.684Z,24.64
2018-07-01T12:28:08.671Z,24.59
2018-07-01T12:29:08.680Z,24.60
2018-07-01T12:30:08.669Z,24.60
2018-07-01T12:31:08.647Z,24.59
2018-07-01T12:32:08.628Z,24.60
2018-07-01T12:33:08.615Z,24.60
2018-07-01T12:34:08.626Z,24.60
2018-07-01T12:35:08.596Z,24.56
2018-07-01T12:36:08.596Z,24.60
2018-07-01T12:37:08.573Z,24.56
2018-07-01T12:38:08.562Z,24.56
2018-07-01T12:39:08.571Z,24.57
2018-07-01T12:40:08.541Z,24.53
2018-07-01T12:41:08.529Z,24.57
2018-07-01T12:42:08.545Z,24.56
2018-07-01T12:43:08.508Z,24.53
2018-07-01T12:44:08.519Z,24.53
2018-07-01T12:45:08.484Z,24.67
2018-07-01T12:46:08.475Z,24.61
2018-07-01T12:47:08.463Z,24.50
2018-07-01T12:48:08.471Z,24.56
2018-07-01T12:49:08.463Z,24.52
2018-07-01T12:50:08.431Z,24.61
2018-07-01T12:51:08.432Z,24.67
2018-07-01T12:52:08.408Z,24.53